createdAt,value
2018-10-16T00:01:42.035Z,1.80
2018-10-16T00:04:08.456Z,1.67
2018-10-16T00:06:34.951Z,1.80
2018-10-16T00:09:01.383Z,2.03
2018-10-16T00:11:27.763Z,2.00
2018-10-16T00:13:54.272Z,2.00
2018-10-16T00:16:20.769Z,2.10
2018-10-16T00:18:47.160Z,2.03
2018-10-16T00:21:13.631Z,2.03
2018-10-16T00:23:40.073Z,1.90
2018-10-16T00:26:06.624Z,1.93
2018-10-16T00:28:33.042Z,2.00
2018-10-16T00:30:59.481Z,2.10
2018-10-16T00:33:25.960Z,1.90
2018-10-16T00:35:52.360Z,2.13
2018-10-16T00:38:18.883Z,2.10
2018-10-16T00:40:45.285Z,1.93
2018-10-16T00:43:11.669Z,2.00
2018-10-16T00:45:38.065Z,2.07
2018-10-16T00:48:04.456Z,1.90
2018-10-16T00:50:30.861Z,1.80
2018-10-16T00:52:57.398Z,1.90
2018-10-16T00:55:23.784Z,1.93
2018-10-16T00:57:50.197Z,2.03
2018-10-16T01:00:16.571Z,2.03
2018-10-16T01:02:42.954Z,1.70
2018-10-16T01:05:09.339Z,1.90
2018-10-16T01:07:35.792Z,1.80
2018-10-16T01:10:02.214Z,1.93
2018-10-16T01:12:28.606Z,2.20
2018-10-16T01:14:54.987Z,2.40
2018-10-16T01:17:21.400Z,1.77
2018-10-16T01:19:47.801Z,1.70
2018-10-16T01:22:14.204Z,2.00
2018-10-16T01:24:40.634Z,1.90
2018-10-16T01:27:07.023Z,1.80
2018-10-16T01:29:33.430Z,1.70
2018-10-16T01:31:59.847Z,1.60
2018-10-16T01:34:26.370Z,1.60
2018-10-16T01:36:52.772Z,1.80
2018-10-16T01:39:19.153Z,1.80
2018-10-16T01:41:45.552Z,1.53
2018-10-16T01:44:11.945Z,1.37
2018-10-16T01:46:38.321Z,1.70
2018-10-16T01:49:04.710Z,1.60
2018-10-16T01:51:31.085Z,1.50
2018-10-16T01:53:57.454Z,1.50
2018-10-16T01:56:23.830Z,1.57
2018-10-16T01:58:50.238Z,1.53
2018-10-16T02:01:16.669Z,1.47
2018-10-16T02:03:43.073Z,1.60
2018-10-16T02:06:09.461Z,1.60
2018-10-16T02:08:35.868Z,1.53
2018-10-16T02:11:02.432Z,1.60
2018-10-16T02:13:28.812Z,1.60
2018-10-16T02:15:55.261Z,1.53
2018-10-16T02:18:21.670Z,1.30
2018-10-16T02:20:48.083Z,1.50
2018-10-16T02:23:14.506Z,1.50
2018-10-16T02:25:40.923Z,1.50
2018-10-16T02:28:07.350Z,1.40
2018-10-16T02:30:33.788Z,1.50
2018-10-16T02:33:00.422Z,1.37
2018-10-16T02:35:26.819Z,1.43
2018-10-16T02:37:53.279Z,1.50
2018-10-16T02:40:19.750Z,1.50
2018-10-16T02:42:46.149Z,1.30
2018-10-16T02:45:12.549Z,1.50
2018-10-16T02:47:38.996Z,1.17
2018-10-16T02:50:05.373Z,1.57
2018-10-16T02:52:31.781Z,1.57
2018-10-16T02:54:58.205Z,1.40
2018-10-16T02:57:24.650Z,1.40
2018-10-16T02:59:51.058Z,1.30
2018-10-16T03:02:17.503Z,1.57
2018-10-16T03:04:43.936Z,1.50
2018-10-16T03:07:10.401Z,1.50
2018-10-16T03:09:36.783Z,1.40
2018-10-16T03:12:03.218Z,1.30
2018-10-16T03:14:29.684Z,1.53
2018-10-16T03:16:56.140Z,1.40
2018-10-16T03:19:22.537Z,1.40
2018-10-16T03:21:48.970Z,1.40
2018-10-16T03:24:15.404Z,1.27
2018-10-16T03:26:41.850Z,1.50
2018-10-16T03:29:08.238Z,1.50
2018-10-16T03:31:34.666Z,1.40
2018-10-16T03:34:01.062Z,1.57
2018-10-16T03:36:27.511Z,1.47
2018-10-16T03:38:53.979Z,1.47
2018-10-16T03:41:20.478Z,1.60
2018-10-16T03:43:46.914Z,1.30
2018-10-16T03:46:13.365Z,1.30
2018-10-16T03:48:39.725Z,1.30
2018-10-16T03:51:06.116Z,1.30
2018-10-16T03:53:32.553Z,1.20
2018-10-16T03:55:59.130Z,1.57
2018-10-16T03:58:25.557Z,2.00
2018-10-16T04:00:51.957Z,1.60
2018-10-16T04:03:18.467Z,1.50
2018-10-16T04:05:44.863Z,1.40
2018-10-16T04:08:11.252Z,1.50
2018-10-16T04:10:37.681Z,1.30
2018-10-16T04:13:04.081Z,1.40
2018-10-16T04:15:30.550Z,1.73
2018-10-16T04:17:56.927Z,1.47
2018-10-16T04:20:23.387Z,1.47
2018-10-16T04:22:49.866Z,1.57
2018-10-16T04:25:16.312Z,1.50
2018-10-16T04:27:42.862Z,1.57
2018-10-16T04:30:09.394Z,1.67
2018-10-16T04:32:35.924Z,1.50
2018-10-16T04:35:02.315Z,1.37
2018-10-16T04:37:28.784Z,1.43
2018-10-16T04:39:55.186Z,1.67
2018-10-16T04:42:21.606Z,1.30
2018-10-16T04:44:48.008Z,1.60
2018-10-16T04:47:14.438Z,1.90
2018-10-16T04:49:40.876Z,1.57
2018-10-16T04:52:07.306Z,2.07
2018-10-16T04:54:33.740Z,1.70
2018-10-16T04:57:00.185Z,1.37
2018-10-16T04:59:26.591Z,1.60
2018-10-16T05:01:53.030Z,1.57
2018-10-16T05:04:19.446Z,1.33
2018-10-16T05:06:45.852Z,1.53
2018-10-16T05:09:12.231Z,1.40
2018-10-16T05:11:38.651Z,1.30
2018-10-16T05:14:05.070Z,1.50
2018-10-16T05:16:31.504Z,1.57
2018-10-16T05:18:57.922Z,1.70
2018-10-16T05:21:24.423Z,1.60
2018-10-16T05:23:50.812Z,1.87
2018-10-16T05:26:17.224Z,1.53
2018-10-16T05:28:43.622Z,1.60
2018-10-16T05:31:10.139Z,1.60
2018-10-16T05:33:36.485Z,1.40
2018-10-16T05:36:02.858Z,1.60
2018-10-16T05:38:29.305Z,1.57
2018-10-16T05:40:55.711Z,1.60
2018-10-16T05:43:22.142Z,1.60
2018-10-16T05:45:48.526Z,1.90
2018-10-16T05:48:15.035Z,1.60
2018-10-16T05:50:41.469Z,1.70
2018-10-16T05:53:08.004Z,1.80
2018-10-16T05:55:34.490Z,1.60
2018-10-16T05:58:01.033Z,1.60
2018-10-16T06:00:27.443Z,2.70
2018-10-16T06:02:54.050Z,1.67
2018-10-16T06:05:20.641Z,2.03
2018-10-16T06:07:48.638Z,1.80
2018-10-16T06:10:15.091Z,2.30
2018-10-16T06:12:41.721Z,2.00
2018-10-16T06:15:08.165Z,1.47
2018-10-16T06:17:34.578Z,1.60
2018-10-16T06:20:01.123Z,2.10
2018-10-16T06:22:28.298Z,1.70
2018-10-16T06:24:54.711Z,1.70
2018-10-16T06:27:21.238Z,1.83
2018-10-16T06:29:47.665Z,1.67
2018-10-16T06:32:14.115Z,1.93
2018-10-16T06:34:40.533Z,1.83
2018-10-16T06:37:06.925Z,1.80
2018-10-16T06:39:33.324Z,1.70
2018-10-16T06:41:59.811Z,1.70
2018-10-16T06:44:26.503Z,1.90
2018-10-16T06:46:52.916Z,2.00
2018-10-16T06:49:19.438Z,2.33
2018-10-16T06:51:45.884Z,1.73
2018-10-16T06:54:12.289Z,1.77
2018-10-16T06:56:38.779Z,1.87
2018-10-16T06:59:05.164Z,2.10
2018-10-16T07:01:31.553Z,2.00
2018-10-16T07:03:57.998Z,2.00
2018-10-16T07:06:24.460Z,2.10
2018-10-16T07:08:50.914Z,2.23
2018-10-16T07:11:17.316Z,1.90
2018-10-16T07:13:43.760Z,2.00
2018-10-16T07:16:10.193Z,1.90
2018-10-16T07:18:36.627Z,2.03
2018-10-16T07:21:03.127Z,2.03
2018-10-16T07:23:29.581Z,2.23
2018-10-16T07:25:55.942Z,2.40
2018-10-16T07:28:22.573Z,1.90
2018-10-16T07:30:49.063Z,2.10
2018-10-16T07:33:15.466Z,2.03
2018-10-16T07:35:41.876Z,1.97
2018-10-16T07:38:08.363Z,1.97
2018-10-16T07:40:34.768Z,2.10
2018-10-16T07:43:01.351Z,2.53
2018-10-16T07:45:27.800Z,2.53
2018-10-16T07:47:54.273Z,2.00
2018-10-16T07:50:20.681Z,3.03
2018-10-16T07:52:47.120Z,1.90
2018-10-16T07:55:13.748Z,2.00
2018-10-16T07:57:40.167Z,2.43
2018-10-16T08:00:06.604Z,2.00
2018-10-16T08:02:33.123Z,2.07
2018-10-16T08:04:59.537Z,2.60
2018-10-16T08:07:25.978Z,2.17
2018-10-16T08:09:53.336Z,1.90
2018-10-16T08:12:19.739Z,2.20
2018-10-16T08:14:46.206Z,2.57
2018-10-16T08:17:12.784Z,1.90
2018-10-16T08:19:39.190Z,2.23
2018-10-16T08:22:05.642Z,1.73
2018-10-16T08:24:32.048Z,2.50
2018-10-16T08:26:58.533Z,2.20
2018-10-16T08:29:25.020Z,2.00
2018-10-16T08:31:51.505Z,2.20
2018-10-16T08:34:18.056Z,2.00
2018-10-16T08:36:44.436Z,1.87
2018-10-16T08:39:10.832Z,1.90
2018-10-16T08:41:37.239Z,2.07
2018-10-16T08:44:03.801Z,2.13
2018-10-16T08:46:30.243Z,1.90
2018-10-16T08:48:56.678Z,1.93
2018-10-16T08:51:23.082Z,2.07
2018-10-16T08:53:49.538Z,2.00
2018-10-16T08:56:15.923Z,1.97
2018-10-16T08:58:42.306Z,1.93
2018-10-16T09:01:08.682Z,2.50
2018-10-16T09:03:35.099Z,1.93
2018-10-16T09:06:01.482Z,1.90
2018-10-16T09:08:28.030Z,2.17
2018-10-16T09:10:54.466Z,2.00
2018-10-16T09:13:21.000Z,1.90
2018-10-16T09:15:47.404Z,2.10
2018-10-16T09:18:13.807Z,1.80
2018-10-16T09:20:40.249Z,1.97
2018-10-16T09:23:07.112Z,1.83
2018-10-16T09:25:33.621Z,2.00
2018-10-16T09:28:00.312Z,1.90
2018-10-16T09:30:26.750Z,1.80
2018-10-16T09:32:53.325Z,2.00
2018-10-16T09:35:19.748Z,1.73
2018-10-16T09:37:46.281Z,1.70
2018-10-16T09:40:12.652Z,1.90
2018-10-16T09:42:39.091Z,1.70
2018-10-16T09:45:05.753Z,1.63
2018-10-16T09:47:32.293Z,2.00
2018-10-16T09:49:58.925Z,1.73
2018-10-16T09:52:25.325Z,1.50
2018-10-16T09:54:51.898Z,1.80
2018-10-16T09:57:18.359Z,1.50
2018-10-16T09:59:44.764Z,1.60
2018-10-16T10:02:11.289Z,1.77
2018-10-16T10:04:37.790Z,1.70
2018-10-16T10:07:04.205Z,1.80
2018-10-16T10:09:31.001Z,1.60
2018-10-16T10:11:57.438Z,2.03
2018-10-16T10:14:25.483Z,1.73
2018-10-16T10:16:51.906Z,2.23
2018-10-16T10:19:18.374Z,2.63
2018-10-16T10:21:44.779Z,2.13
2018-10-16T10:24:11.257Z,1.90
2018-10-16T10:26:37.742Z,2.17
2018-10-16T10:29:04.194Z,1.83
2018-10-16T10:31:30.683Z,1.80
2018-10-16T10:33:57.060Z,1.70
2018-10-16T10:36:23.461Z,1.70
2018-10-16T10:38:49.845Z,1.43
2018-10-16T10:41:16.314Z,1.70
2018-10-16T10:43:42.800Z,1.50
2018-10-16T10:46:09.400Z,1.70
2018-10-16T10:48:35.912Z,1.50
2018-10-16T10:51:02.503Z,1.90
2018-10-16T10:53:28.784Z,1.67
2018-10-16T10:55:55.180Z,1.73
2018-10-16T10:58:21.609Z,1.60
2018-10-16T11:00:48.101Z,1.57
2018-10-16T11:03:14.634Z,1.80
2018-10-16T11:05:41.044Z,1.70
2018-10-16T11:08:07.449Z,1.80
2018-10-16T11:10:33.888Z,1.90
2018-10-16T11:13:00.407Z,1.80
2018-10-16T11:15:26.843Z,1.50
2018-10-16T11:17:53.336Z,1.70
2018-10-16T11:20:19.927Z,1.67
2018-10-16T11:22:46.345Z,1.80
2018-10-16T11:25:12.797Z,1.40
2018-10-16T11:27:39.319Z,1.53
2018-10-16T11:30:05.781Z,1.53
2018-10-16T11:32:32.214Z,1.40
2018-10-16T11:34:58.594Z,1.60
2018-10-16T11:37:25.092Z,1.57
2018-10-16T11:39:52.389Z,1.67
2018-10-16T11:42:18.793Z,1.93
2018-10-16T11:44:45.367Z,1.80
2018-10-16T11:47:11.773Z,1.60
2018-10-16T11:49:38.325Z,1.67
2018-10-16T11:52:05.045Z,1.80
2018-10-16T11:54:31.476Z,1.57
2018-10-16T11:56:57.879Z,1.40
2018-10-16T11:59:24.491Z,1.63
2018-10-16T12:01:50.812Z,1.70
2018-10-16T12:04:17.298Z,1.60
2018-10-16T12:06:43.733Z,1.97
2018-10-16T12:09:10.646Z,1.50
2018-10-16T12:11:37.248Z,1.70
2018-10-16T12:14:03.775Z,1.50
2018-10-16T12:16:32.403Z,1.83
2018-10-16T12:18:58.836Z,1.20
2018-10-16T12:21:25.232Z,1.50
2018-10-16T12:23:51.651Z,1.40
2018-10-16T12:26:18.088Z,1.43
2018-10-16T12:28:44.711Z,1.30
2018-10-16T12:31:11.340Z,1.57
2018-10-16T12:33:39.669Z,1.40
2018-10-16T12:36:06.179Z,1.50
2018-10-16T12:38:32.715Z,1.30
2018-10-16T12:40:59.166Z,1.60
2018-10-16T12:43:25.632Z,1.27
2018-10-16T12:45:52.115Z,1.30
2018-10-16T12:48:18.532Z,1.50
2018-10-16T12:50:44.955Z,1.40
2018-10-16T12:53:11.413Z,1.30
2018-10-16T12:55:37.824Z,1.40
2018-10-16T12:58:04.490Z,1.30
2018-10-16T13:00:30.915Z,1.17
2018-10-16T13:02:57.337Z,1.60
2018-10-16T13:05:23.883Z,1.80
2018-10-16T13:07:50.349Z,1.67
2018-10-16T13:10:16.802Z,1.87
2018-10-16T13:12:43.205Z,1.43
2018-10-16T13:15:09.707Z,1.90
2018-10-16T13:17:36.149Z,1.30
2018-10-16T13:20:03.472Z,1.50
2018-10-16T13:22:29.815Z,1.23
2018-10-16T13:24:56.249Z,1.20
2018-10-16T13:27:22.683Z,1.20
2018-10-16T13:29:49.119Z,1.90
2018-10-16T13:32:16.055Z,1.20
2018-10-16T13:34:42.600Z,1.40
2018-10-16T13:37:09.038Z,1.77
2018-10-16T13:39:35.494Z,1.37
2018-10-16T13:42:01.926Z,1.57
2018-10-16T13:44:28.360Z,1.17
2018-10-16T13:46:54.779Z,1.40
2018-10-16T13:49:21.211Z,1.30
2018-10-16T13:51:47.732Z,1.50
2018-10-16T13:54:14.169Z,1.43
2018-10-16T13:56:40.680Z,2.30
2018-10-16T13:59:07.119Z,1.70
2018-10-16T14:01:33.581Z,1.30
2018-10-16T14:04:00.068Z,1.87
2018-10-16T14:06:26.463Z,1.83
2018-10-16T14:08:52.855Z,1.87
2018-10-16T14:11:19.277Z,1.60
2018-10-16T14:13:45.722Z,1.50
2018-10-16T14:16:12.242Z,1.70
2018-10-16T14:18:38.639Z,1.67
2018-10-16T14:21:05.155Z,2.23
2018-10-16T14:23:31.593Z,1.57
2018-10-16T14:25:58.075Z,1.33
2018-10-16T14:28:24.487Z,1.70
2018-10-16T14:30:50.937Z,1.43
2018-10-16T14:33:17.358Z,1.70
2018-10-16T14:35:43.863Z,1.67
2018-10-16T14:38:10.498Z,1.57
2018-10-16T14:40:36.869Z,1.70
2018-10-16T14:43:03.375Z,1.80
2018-10-16T14:45:29.893Z,1.30
2018-10-16T14:47:56.398Z,1.50
2018-10-16T14:50:22.867Z,1.57
2018-10-16T14:52:49.297Z,1.60
2018-10-16T14:55:15.688Z,2.03
2018-10-16T14:57:42.149Z,1.93
2018-10-16T15:00:08.548Z,2.10
2018-10-16T15:02:35.000Z,1.90
2018-10-16T15:05:01.814Z,1.60
2018-10-16T15:07:28.294Z,2.13
2018-10-16T15:09:54.762Z,1.67
2018-10-16T15:12:21.126Z,1.90
2018-10-16T15:14:47.576Z,1.57
2018-10-16T15:17:13.992Z,1.70
2018-10-16T15:19:40.458Z,1.60
2018-10-16T15:22:06.955Z,1.73
2018-10-16T15:24:33.329Z,1.70
2018-10-16T15:26:59.762Z,1.77
2018-10-16T15:29:26.187Z,2.10
2018-10-16T15:31:52.629Z,1.70
2018-10-16T15:34:19.060Z,2.47
2018-10-16T15:36:45.498Z,1.63
2018-10-16T15:39:11.931Z,1.90
2018-10-16T15:41:38.366Z,1.70
2018-10-16T15:44:04.833Z,1.80
2018-10-16T15:46:31.369Z,1.97
2018-10-16T15:48:57.784Z,1.90
2018-10-16T15:51:24.195Z,1.90
2018-10-16T15:53:50.599Z,1.73
2018-10-16T15:56:17.009Z,1.80
2018-10-16T15:58:43.481Z,1.63
2018-10-16T16:01:09.862Z,1.70
2018-10-16T16:03:36.341Z,1.80
2018-10-16T16:06:02.794Z,1.83
2018-10-16T16:08:29.208Z,2.20
2018-10-16T16:10:55.723Z,2.00
2018-10-16T16:13:22.161Z,2.00
2018-10-16T16:15:48.551Z,2.00
2018-10-16T16:18:15.076Z,1.70
2018-10-16T16:20:41.479Z,1.90
2018-10-16T16:23:07.931Z,2.00
2018-10-16T16:25:34.359Z,2.10
2018-10-16T16:28:00.803Z,2.10
2018-10-16T16:30:27.214Z,2.20
2018-10-16T16:32:53.681Z,2.83
2018-10-16T16:35:21.259Z,2.30
2018-10-16T16:37:47.683Z,1.80
2018-10-16T16:40:14.127Z,2.20
2018-10-16T16:42:40.528Z,2.20
2018-10-16T16:45:06.955Z,1.90
2018-10-16T16:47:33.364Z,2.10
2018-10-16T16:49:59.942Z,2.20
2018-10-16T16:52:26.356Z,1.90
2018-10-16T16:54:52.762Z,2.60
2018-10-16T16:57:19.173Z,2.17
2018-10-16T16:59:45.563Z,2.50
2018-10-16T17:02:12.094Z,2.40
2018-10-16T17:04:38.458Z,2.30
2018-10-16T17:07:05.317Z,2.20
2018-10-16T17:09:31.726Z,2.20
2018-10-16T17:11:58.121Z,2.40
2018-10-16T17:14:24.563Z,2.30
2018-10-16T17:16:50.985Z,2.20
2018-10-16T17:19:17.369Z,2.27
2018-10-16T17:21:43.810Z,2.20
2018-10-16T17:24:10.241Z,2.20
2018-10-16T17:26:36.658Z,2.40
2018-10-16T17:29:03.031Z,2.43
2018-10-16T17:31:29.461Z,2.10
2018-10-16T17:33:55.910Z,2.33
2018-10-16T17:36:22.370Z,2.70
2018-10-16T17:38:48.807Z,2.33
2018-10-16T17:41:15.184Z,2.53
2018-10-16T17:43:41.623Z,2.40
2018-10-16T17:46:08.305Z,2.77
2018-10-16T17:48:34.823Z,2.47
2018-10-16T17:51:01.262Z,2.40
2018-10-16T17:53:27.666Z,2.40
2018-10-16T17:55:54.108Z,2.20
2018-10-16T17:58:20.570Z,2.43
2018-10-16T18:00:46.959Z,2.10
2018-10-16T18:03:13.401Z,2.13
2018-10-16T18:05:39.840Z,2.30
2018-10-16T18:08:06.267Z,2.37
2018-10-16T18:10:32.708Z,2.27
2018-10-16T18:12:59.097Z,2.13
2018-10-16T18:15:25.534Z,2.50
2018-10-16T18:17:51.929Z,2.57
2018-10-16T18:20:18.436Z,2.40
2018-10-16T18:22:44.958Z,2.40
2018-10-16T18:25:11.436Z,2.47
2018-10-16T18:27:37.831Z,2.60
2018-10-16T18:30:04.299Z,2.03
2018-10-16T18:32:30.749Z,2.00
2018-10-16T18:34:57.177Z,2.27
2018-10-16T18:37:23.566Z,2.33
2018-10-16T18:39:50.057Z,2.23
2018-10-16T18:42:16.461Z,2.30
2018-10-16T18:44:43.097Z,2.43
2018-10-16T18:47:09.525Z,2.40
2018-10-16T18:49:35.964Z,2.30
2018-10-16T18:52:03.146Z,2.17
2018-10-16T18:54:29.548Z,2.53
2018-10-16T18:56:56.005Z,2.30
2018-10-16T18:59:22.389Z,2.17
2018-10-16T19:01:48.850Z,2.30
2018-10-16T19:04:15.410Z,2.23
2018-10-16T19:06:41.876Z,2.30
2018-10-16T19:09:08.400Z,2.40
2018-10-16T19:11:34.882Z,2.20
2018-10-16T19:14:01.351Z,2.37
2018-10-16T19:16:27.784Z,2.70
2018-10-16T19:18:54.255Z,2.33
2018-10-16T19:21:20.684Z,2.70
2018-10-16T19:23:47.132Z,2.23
2018-10-16T19:26:13.598Z,2.40
2018-10-16T19:28:40.103Z,2.40
2018-10-16T19:31:06.599Z,2.40
2018-10-16T19:33:33.023Z,2.50
2018-10-16T19:35:59.451Z,2.17
2018-10-16T19:38:25.912Z,2.53
2018-10-16T19:40:52.324Z,2.23
2018-10-16T19:43:18.776Z,2.50
2018-10-16T19:45:45.284Z,2.40
2018-10-16T19:48:11.614Z,2.33
2018-10-16T19:50:38.048Z,2.13
2018-10-16T19:53:04.524Z,2.47
2018-10-16T19:55:30.950Z,2.10
2018-10-16T19:57:57.397Z,2.20
2018-10-16T20:00:23.910Z,2.40
2018-10-16T20:02:50.312Z,2.30
2018-10-16T20:05:16.696Z,2.10
2018-10-16T20:07:43.155Z,2.43
2018-10-16T20:10:09.683Z,2.10
2018-10-16T20:12:36.093Z,2.10
2018-10-16T20:15:02.585Z,2.00
2018-10-16T20:17:28.960Z,2.57
2018-10-16T20:19:55.407Z,2.47
2018-10-16T20:22:21.873Z,2.27
2018-10-16T20:24:48.291Z,2.10
2018-10-16T20:27:14.681Z,2.30
2018-10-16T20:29:41.102Z,2.10
2018-10-16T20:32:07.492Z,1.90
2018-10-16T20:34:33.930Z,2.30
2018-10-16T20:37:00.446Z,2.20
2018-10-16T20:39:26.881Z,1.87
2018-10-16T20:41:53.371Z,2.03
2018-10-16T20:44:19.730Z,2.40
2018-10-16T20:46:46.122Z,2.10
2018-10-16T20:49:12.620Z,2.00
2018-10-16T20:51:38.994Z,2.37
2018-10-16T20:54:05.433Z,2.50
2018-10-16T20:56:31.810Z,2.27
2018-10-16T20:58:58.207Z,2.17
2018-10-16T21:01:24.590Z,2.10
2018-10-16T21:03:51.033Z,2.20
2018-10-16T21:06:17.759Z,2.30
2018-10-16T21:08:43.897Z,2.00
2018-10-16T21:11:10.387Z,2.27
2018-10-16T21:13:36.757Z,2.10
2018-10-16T21:16:03.151Z,2.20
2018-10-16T21:18:29.570Z,2.27
2018-10-16T21:20:55.980Z,2.07
2018-10-16T21:23:22.360Z,2.27
2018-10-16T21:25:48.813Z,2.20
2018-10-16T21:28:15.211Z,2.30
2018-10-16T21:30:41.678Z,2.40
2018-10-16T21:33:08.066Z,1.97
2018-10-16T21:35:34.498Z,2.50
2018-10-16T21:38:00.932Z,2.00
2018-10-16T21:40:27.349Z,2.17
2018-10-16T21:42:53.855Z,2.37
2018-10-16T21:45:20.261Z,2.20
2018-10-16T21:47:46.612Z,2.37
2018-10-16T21:50:13.035Z,1.93
2018-10-16T21:52:39.428Z,2.00
2018-10-16T21:55:05.880Z,2.07
2018-10-16T21:57:32.389Z,2.23
2018-10-16T21:59:58.813Z,2.20
2018-10-16T22:02:25.268Z,2.30
2018-10-16T22:04:51.723Z,2.33
2018-10-16T22:07:18.136Z,2.13
2018-10-16T22:09:44.609Z,2.30
2018-10-16T22:12:11.045Z,2.20
2018-10-16T22:14:37.481Z,2.30
2018-10-16T22:17:03.863Z,2.10
2018-10-16T22:19:30.383Z,2.30
2018-10-16T22:21:56.776Z,1.90
2018-10-16T22:24:23.209Z,2.17
2018-10-16T22:26:49.735Z,2.40
2018-10-16T22:29:16.240Z,2.03
2018-10-16T22:31:42.580Z,2.20
2018-10-16T22:34:08.992Z,1.90
2018-10-16T22:36:35.368Z,1.87
2018-10-16T22:39:01.804Z,2.00
2018-10-16T22:41:28.190Z,2.00
2018-10-16T22:43:54.680Z,2.10
2018-10-16T22:46:21.083Z,2.10
2018-10-16T22:48:47.478Z,2.27
2018-10-16T22:51:14.523Z,2.43
2018-10-16T22:53:40.961Z,2.10
2018-10-16T22:56:07.335Z,2.23
2018-10-16T22:58:33.763Z,2.10
2018-10-16T23:01:00.177Z,2.13
2018-10-16T23:03:26.566Z,2.40
2018-10-16T23:05:52.960Z,1.90
2018-10-16T23:08:19.350Z,2.10
2018-10-16T23:10:45.789Z,2.20
2018-10-16T23:13:12.253Z,2.23
2018-10-16T23:15:38.728Z,1.90
2018-10-16T23:18:05.143Z,1.97
2018-10-16T23:20:31.587Z,2.30
2018-10-16T23:22:57.982Z,2.20
2018-10-16T23:25:24.444Z,2.20
2018-10-16T23:27:50.810Z,2.40
2018-10-16T23:30:17.317Z,2.07
2018-10-16T23:32:43.728Z,2.47
2018-10-16T23:35:10.179Z,2.10
2018-10-16T23:37:36.527Z,2.33
2018-10-16T23:40:02.919Z,2.30
2018-10-16T23:42:29.305Z,2.73
2018-10-16T23:44:55.688Z,2.20
2018-10-16T23:47:22.073Z,2.40
2018-10-16T23:49:48.505Z,2.20
2018-10-16T23:52:14.872Z,2.00
2018-10-16T23:54:41.240Z,2.10
2018-10-16T23:57:07.644Z,2.10
2018-10-16T23:59:34.073Z,2.10
